createdAt,value
2023-04-21T00:00:10.036Z,44.30
2023-04-21T00:05:24.657Z,43.92
2023-04-21T00:08:04.064Z,44.72
2023-04-21T00:10:48.294Z,42.92
2023-04-21T00:13:17.891Z,43.83
2023-04-21T00:15:47.085Z,43.35
2023-04-21T00:18:17.058Z,43.63
2023-04-21T00:20:48.585Z,42.65
2023-04-21T00:25:46.573Z,42.97
2023-04-21T00:28:16.389Z,46.17
2023-04-21T00:30:45.218Z,44.47
2023-04-21T00:36:05.596Z,46.08
2023-04-21T00:38:41.338Z,45.67
2023-04-21T00:41:12.870Z,48.63
2023-04-21T00:44:02.990Z,46.22
2023-04-21T00:49:14.897Z,47.05
2023-04-21T00:51:50.446Z,47.00
2023-04-21T00:54:18.825Z,46.08
2023-04-21T00:56:46.127Z,47.83
2023-04-21T00:59:24.821Z,46.97
2023-04-21T01:01:57.258Z,46.30
2023-04-21T01:04:25.188Z,47.58
2023-04-21T01:06:54.026Z,46.92
2023-04-21T01:09:23.513Z,46.30
2023-04-21T01:12:12.335Z,47.05
2023-04-21T01:14:46.556Z,49.25
2023-04-21T01:17:15.690Z,45.95
2023-04-21T01:19:45.459Z,47.50
2023-04-21T01:22:15.692Z,47.47
2023-04-21T01:24:44.796Z,47.85
2023-04-21T01:27:16.705Z,48.60
2023-04-21T01:29:49.384Z,48.20
2023-04-21T01:32:20.098Z,48.90
2023-04-21T01:34:47.610Z,49.35
2023-04-21T01:37:27.492Z,48.58
2023-04-21T01:39:58.806Z,48.07
2023-04-21T01:42:35.345Z,49.80
2023-04-21T01:45:02.930Z,48.53
2023-04-21T01:47:41.656Z,49.28
2023-04-21T01:50:16.356Z,46.75
2023-04-21T01:52:43.677Z,48.97
2023-04-21T01:55:16.184Z,48.22
2023-04-21T01:57:43.336Z,48.10
2023-04-21T02:00:17.420Z,47.70
2023-04-21T02:02:45.800Z,49.10
2023-04-21T02:05:15.228Z,48.65
2023-04-21T02:07:46.235Z,48.67
2023-04-21T02:10:13.523Z,50.13
2023-04-21T02:12:45.746Z,48.63
2023-04-21T02:15:12.730Z,48.75
2023-04-21T02:17:45.572Z,47.83
2023-04-21T02:20:13.600Z,47.90
2023-04-21T02:22:41.985Z,49.88
2023-04-21T02:25:08.971Z,49.20
2023-04-21T02:27:36.720Z,49.75
2023-04-21T02:32:50.614Z,48.50
2023-04-21T02:35:20.389Z,48.22
2023-04-21T02:37:48.391Z,48.15
2023-04-21T02:40:15.713Z,53.75
2023-04-21T02:42:42.341Z,50.10
2023-04-21T02:45:13.111Z,48.10
2023-04-21T02:47:42.149Z,50.47
2023-04-21T02:50:11.313Z,48.83
2023-04-21T02:52:38.729Z,47.17
2023-04-21T02:55:08.131Z,48.80
2023-04-21T03:00:34.000Z,48.22
2023-04-21T03:03:05.482Z,46.60
2023-04-21T03:05:41.704Z,46.72
2023-04-21T03:08:08.898Z,46.97
2023-04-21T03:10:41.750Z,47.50
2023-04-21T03:13:08.544Z,45.03
2023-04-21T03:15:36.964Z,48.13
2023-04-21T03:18:04.603Z,46.58
2023-04-21T03:20:35.563Z,46.50
2023-04-21T03:23:03.755Z,47.50
2023-04-21T03:25:30.715Z,46.05
2023-04-21T03:27:57.401Z,44.80
2023-04-21T03:30:28.016Z,47.40
2023-04-21T03:33:02.798Z,47.63
2023-04-21T03:35:34.666Z,45.38
2023-04-21T03:38:03.872Z,46.90
2023-04-21T03:40:31.903Z,45.95
2023-04-21T03:42:59.073Z,48.65
2023-04-21T03:45:26.510Z,48.25
2023-04-21T03:48:07.427Z,47.53
2023-04-21T03:50:38.630Z,45.25
2023-04-21T03:53:07.394Z,47.40
2023-04-21T03:55:34.527Z,47.75
2023-04-21T03:58:01.249Z,45.58
2023-04-21T04:00:29.280Z,45.70
2023-04-21T04:02:59.533Z,46.58
2023-04-21T04:08:04.623Z,46.22
2023-04-21T04:10:43.607Z,48.50
2023-04-21T04:13:10.360Z,48.10
2023-04-21T04:15:40.619Z,47.60
2023-04-21T04:18:07.384Z,45.55
2023-04-21T04:20:35.030Z,46.40
2023-04-21T04:23:03.163Z,45.72
2023-04-21T04:25:31.541Z,46.55
2023-04-21T04:28:00.035Z,45.00
2023-04-21T04:30:32.283Z,45.17
2023-04-21T04:33:04.283Z,43.92
2023-04-21T04:35:44.595Z,46.53
2023-04-21T04:38:15.505Z,47.08
2023-04-21T04:41:03.364Z,45.28
2023-04-21T04:43:32.743Z,44.38
2023-04-21T04:48:50.531Z,44.88
2023-04-21T04:51:18.845Z,45.83
2023-04-21T04:53:50.746Z,47.33
2023-04-21T04:56:23.757Z,45.85
2023-04-21T04:58:53.133Z,45.58
2023-04-21T05:01:23.414Z,47.80
2023-04-21T05:03:55.119Z,46.85
2023-04-21T05:06:23.418Z,44.83
2023-04-21T05:08:52.015Z,45.90
2023-04-21T05:11:20.484Z,45.65
2023-04-21T05:13:50.721Z,45.95
2023-04-21T05:19:04.432Z,46.35
2023-04-21T05:21:37.394Z,44.92
2023-04-21T05:24:04.413Z,46.03
2023-04-21T05:27:05.368Z,45.50
2023-04-21T05:29:34.423Z,44.15
2023-04-21T05:32:03.386Z,45.45
2023-04-21T05:34:31.005Z,43.88
2023-04-21T05:37:00.173Z,43.95
2023-04-21T05:39:30.395Z,45.60
2023-04-21T05:42:03.129Z,44.25
2023-04-21T05:44:31.426Z,43.65
2023-04-21T05:52:49.043Z,45.17
2023-04-21T05:55:19.857Z,44.55
2023-04-21T06:00:17.863Z,45.28
2023-04-21T06:02:46.424Z,44.85
2023-04-21T06:05:14.253Z,45.92
2023-04-21T06:07:41.367Z,47.15
2023-04-21T06:12:52.376Z,45.63
2023-04-21T06:15:25.537Z,46.70
2023-04-21T06:17:59.233Z,46.15
2023-04-21T06:20:34.462Z,45.17
2023-04-21T06:23:01.342Z,45.67
2023-04-21T06:25:28.627Z,43.90
2023-04-21T06:28:00.134Z,45.28
2023-04-21T06:30:26.802Z,44.83
2023-04-21T06:33:01.246Z,44.10
2023-04-21T06:35:29.253Z,45.15
2023-04-21T06:40:38.100Z,42.45
2023-04-21T06:43:06.686Z,43.00
2023-04-21T06:45:38.006Z,41.63
2023-04-21T06:48:07.537Z,42.13
2023-04-21T06:50:34.211Z,40.75
2023-04-21T06:53:03.954Z,41.67
2023-04-21T06:55:38.765Z,42.43
2023-04-21T07:09:01.989Z,38.13
2023-04-21T07:11:31.862Z,33.45
2023-04-21T07:14:05.444Z,34.22
2023-04-21T07:16:37.509Z,34.42
2023-04-21T07:19:04.711Z,34.10
2023-04-21T07:21:37.306Z,31.67
2023-04-21T07:24:07.947Z,34.13
2023-04-21T07:29:12.909Z,32.13
2023-04-21T07:31:43.536Z,33.35
2023-04-21T07:34:11.098Z,35.67
2023-04-21T07:36:46.904Z,32.97
2023-04-21T07:39:13.659Z,33.70
2023-04-21T07:41:45.012Z,32.70
2023-04-21T07:44:11.617Z,33.63
2023-04-21T07:46:39.497Z,34.10
2023-04-21T07:49:10.325Z,34.22
2023-04-21T07:51:37.376Z,32.63
2023-04-21T07:54:06.486Z,31.90
2023-04-21T07:56:36.191Z,31.23
2023-04-21T07:59:04.098Z,32.15
2023-04-21T08:01:32.846Z,32.30
2023-04-21T08:03:59.696Z,32.15
2023-04-21T08:06:30.202Z,31.15
2023-04-21T08:08:56.970Z,31.80
2023-04-21T08:11:24.052Z,32.70
2023-04-21T08:14:00.441Z,31.70
2023-04-21T08:16:28.689Z,32.33
2023-04-21T08:19:08.031Z,33.15
2023-04-21T08:24:17.180Z,32.83
2023-04-21T08:26:47.485Z,30.90
2023-04-21T08:29:15.444Z,31.88
2023-04-21T08:31:44.577Z,31.80
2023-04-21T08:34:11.877Z,31.75
2023-04-21T08:36:41.118Z,32.10
2023-04-21T08:39:12.066Z,33.42
2023-04-21T08:41:47.355Z,31.02
2023-04-21T08:47:04.468Z,31.58
2023-04-21T08:49:42.675Z,31.15
2023-04-21T08:52:20.777Z,32.30
2023-04-21T08:54:52.144Z,30.42
2023-04-21T08:57:22.447Z,31.83
2023-04-21T09:02:18.879Z,30.88
2023-04-21T09:07:49.509Z,31.27
2023-04-21T09:10:24.389Z,30.02
2023-04-21T09:13:00.688Z,28.30
2023-04-21T09:15:29.298Z,29.50
2023-04-21T09:17:57.378Z,30.88
2023-04-21T09:20:28.216Z,29.25
2023-04-21T09:25:40.507Z,29.83
2023-04-21T09:28:14.889Z,30.73
2023-04-21T09:30:44.994Z,27.98
2023-04-21T09:33:28.942Z,30.40
2023-04-21T09:36:03.101Z,28.95
2023-04-21T09:41:01.464Z,29.40
2023-04-21T09:43:28.337Z,29.42
2023-04-21T09:45:56.560Z,29.98
2023-04-21T09:48:27.356Z,27.92
2023-04-21T09:53:43.081Z,28.73
2023-04-21T09:56:17.493Z,27.58
2023-04-21T09:58:56.887Z,27.50
2023-04-21T10:01:30.922Z,26.13
2023-04-21T10:03:58.651Z,27.38
2023-04-21T10:06:30.998Z,26.98
2023-04-21T10:09:09.434Z,27.42
2023-04-21T10:11:38.908Z,26.55
2023-04-21T10:14:12.322Z,26.92
2023-04-21T10:16:39.926Z,26.23
2023-04-21T10:19:26.323Z,25.58
2023-04-21T10:22:05.675Z,26.58
2023-04-21T10:24:43.290Z,24.05
2023-04-21T10:27:15.865Z,23.27
2023-04-21T10:29:56.743Z,25.20
2023-04-21T10:32:45.818Z,23.50
2023-04-21T10:35:23.416Z,24.00
2023-04-21T10:37:55.029Z,23.65
2023-04-21T10:40:43.020Z,22.98
2023-04-21T10:43:49.179Z,23.05
2023-04-21T10:46:39.665Z,23.15
2023-04-21T10:49:23.380Z,23.83
2023-04-21T10:52:09.027Z,24.63
2023-04-21T10:54:41.772Z,22.25
2023-04-21T10:57:14.380Z,22.27
2023-04-21T10:59:42.639Z,23.42
2023-04-21T11:02:15.266Z,22.08
2023-04-21T11:04:51.360Z,22.55
2023-04-21T11:07:28.056Z,19.52
2023-04-21T11:12:43.797Z,19.90
2023-04-21T11:15:19.932Z,20.80
2023-04-21T11:17:47.885Z,21.15
2023-04-21T11:20:16.118Z,20.80
2023-04-21T11:22:45.850Z,19.38
2023-04-21T11:27:59.864Z,20.08
2023-04-21T11:30:44.515Z,20.33
2023-04-21T11:33:18.829Z,19.73
2023-04-21T11:35:46.039Z,20.73
2023-04-21T11:38:15.033Z,20.83
2023-04-21T11:40:51.269Z,20.15
2023-04-21T11:43:21.161Z,19.52
2023-04-21T11:45:51.828Z,20.05
2023-04-21T11:50:55.658Z,19.63
2023-04-21T11:53:26.034Z,20.23
2023-04-21T11:55:54.031Z,20.42
2023-04-21T11:58:24.377Z,19.65
2023-04-21T12:00:54.135Z,20.55
2023-04-21T12:03:21.388Z,20.75
2023-04-21T12:05:56.948Z,19.17
2023-04-21T12:08:26.866Z,20.23
2023-04-21T12:10:57.092Z,18.45
2023-04-21T12:13:24.435Z,18.45
2023-04-21T12:15:58.590Z,18.55
2023-04-21T12:18:36.756Z,17.40
2023-04-21T12:21:09.099Z,18.30
2023-04-21T12:23:40.782Z,15.98
2023-04-21T12:26:14.578Z,17.13
2023-04-21T12:28:44.960Z,15.70
2023-04-21T12:31:25.536Z,15.15
2023-04-21T12:36:25.432Z,15.32
2023-04-21T12:39:04.085Z,15.45
2023-04-21T12:41:33.678Z,14.00
2023-04-21T12:44:06.984Z,14.93
2023-04-21T12:46:37.652Z,15.05
2023-04-21T12:49:11.757Z,15.07
2023-04-21T12:51:42.738Z,15.00
2023-04-21T12:54:18.804Z,14.18
2023-04-21T12:56:47.179Z,14.18
2023-04-21T12:59:21.676Z,13.65
2023-04-21T13:01:56.365Z,14.38
2023-04-21T13:04:26.927Z,14.13
2023-04-21T13:06:55.074Z,14.02
2023-04-21T13:09:30.264Z,14.23
2023-04-21T13:12:00.224Z,13.75
2023-04-21T13:14:34.419Z,13.93
2023-04-21T13:22:44.726Z,14.52
2023-04-21T13:28:56.646Z,14.90
2023-04-21T13:31:27.817Z,12.40
2023-04-21T13:33:56.115Z,12.65
2023-04-21T13:36:23.857Z,12.85
2023-04-21T13:39:03.896Z,12.35
2023-04-21T13:41:31.293Z,12.43
2023-04-21T13:44:03.390Z,11.75
2023-04-21T13:46:33.370Z,11.98
2023-04-21T13:49:02.487Z,12.20
2023-04-21T13:51:32.422Z,12.00
2023-04-21T13:54:00.855Z,11.45
2023-04-21T13:56:28.946Z,11.65
2023-04-21T14:01:41.925Z,11.98
2023-04-21T14:04:09.280Z,10.95
2023-04-21T14:06:36.104Z,9.90
2023-04-21T14:09:04.786Z,10.55
2023-04-21T14:11:32.634Z,10.63
2023-04-21T14:14:09.620Z,9.95
2023-04-21T14:16:37.316Z,9.65
2023-04-21T14:19:09.231Z,9.77
2023-04-21T14:21:36.211Z,9.68
2023-04-21T14:24:05.479Z,10.70
2023-04-21T14:26:39.576Z,9.95
2023-04-21T14:29:09.049Z,9.88
2023-04-21T14:31:39.976Z,8.73
2023-04-21T14:34:06.829Z,9.00
2023-04-21T14:36:35.433Z,8.30
2023-04-21T14:39:15.270Z,9.18
2023-04-21T14:41:46.682Z,9.40
2023-04-21T14:44:15.007Z,8.70
2023-04-21T14:47:01.454Z,9.88
2023-04-21T14:49:37.486Z,8.27
2023-04-21T14:52:07.629Z,8.35
2023-04-21T14:54:34.389Z,8.73
2023-04-21T14:57:19.763Z,7.95
2023-04-21T14:59:57.704Z,8.07
2023-04-21T15:02:32.461Z,8.88
2023-04-21T15:05:14.124Z,8.88
2023-04-21T15:07:43.302Z,7.82
2023-04-21T15:10:12.496Z,8.40
2023-04-21T15:12:45.938Z,8.43
2023-04-21T15:15:13.123Z,8.50
2023-04-21T15:17:49.652Z,8.55
2023-04-21T15:23:05.243Z,7.57
2023-04-21T15:25:32.044Z,8.48
2023-04-21T15:28:03.009Z,7.75
2023-04-21T15:33:16.687Z,8.52
2023-04-21T15:35:43.846Z,9.82
2023-04-21T15:38:13.819Z,9.20
2023-04-21T15:43:28.713Z,8.77
2023-04-21T15:46:04.040Z,8.13
2023-04-21T15:48:32.262Z,9.18
2023-04-21T15:51:03.049Z,8.38
2023-04-21T15:53:35.894Z,7.82
2023-04-21T15:56:10.710Z,8.50
2023-04-21T15:58:40.082Z,8.10
2023-04-21T16:01:08.410Z,8.05
2023-04-21T16:03:37.408Z,8.45
2023-04-21T16:08:45.607Z,7.57
2023-04-21T16:11:17.068Z,8.57
2023-04-21T16:13:47.738Z,9.18
2023-04-21T16:16:26.288Z,8.32
2023-04-21T16:19:01.999Z,7.97
2023-04-21T16:21:43.082Z,8.23
2023-04-21T16:24:17.937Z,7.53
2023-04-21T16:26:49.166Z,8.00
2023-04-21T16:32:01.855Z,6.93
2023-04-21T16:34:32.245Z,8.60
2023-04-21T16:37:02.810Z,7.70
2023-04-21T16:42:15.120Z,6.80
2023-04-21T16:44:46.972Z,7.28
2023-04-21T16:47:17.345Z,7.38
2023-04-21T16:55:12.389Z,7.40
2023-04-21T16:57:39.381Z,7.97
2023-04-21T17:00:12.638Z,8.18
2023-04-21T17:02:42.419Z,7.97
2023-04-21T17:05:09.903Z,8.38
2023-04-21T17:07:39.770Z,6.78
2023-04-21T17:10:09.867Z,6.60
2023-04-21T17:12:39.500Z,6.60
2023-04-21T17:15:07.752Z,7.63
2023-04-21T17:17:46.207Z,7.00
2023-04-21T17:22:56.374Z,7.10
2023-04-21T17:25:31.772Z,6.60
2023-04-21T17:28:04.017Z,7.80
2023-04-21T17:30:33.197Z,6.22
2023-04-21T17:33:15.978Z,6.22
2023-04-21T17:38:43.289Z,6.38
2023-04-21T17:41:21.749Z,6.50
2023-04-21T17:47:18.297Z,6.03
2023-04-21T17:49:47.163Z,5.95
2023-04-21T17:52:16.964Z,6.20
2023-04-21T17:54:56.518Z,6.50
2023-04-21T18:00:37.414Z,5.70
2023-04-21T18:03:12.319Z,6.82
2023-04-21T18:05:45.508Z,5.13
2023-04-21T18:13:56.092Z,2.83
2023-04-21T18:19:20.107Z,2.40
2023-04-21T18:22:41.303Z,2.40
2023-04-21T18:25:40.880Z,2.45
2023-04-21T18:37:10.658Z,3.58
2023-04-21T18:46:06.080Z,4.15
2023-04-21T18:51:33.185Z,4.82
2023-04-21T18:54:06.413Z,5.20
2023-04-21T19:00:04.400Z,5.15
2023-04-21T19:02:40.277Z,5.55
2023-04-21T19:05:15.892Z,5.75
2023-04-21T19:13:17.361Z,5.72
2023-04-21T19:19:07.787Z,4.85
2023-04-21T19:27:55.735Z,5.00
2023-04-21T19:39:24.328Z,4.97
2023-04-21T19:41:59.128Z,4.93
2023-04-21T19:44:39.594Z,4.47
2023-04-21T19:49:52.925Z,4.82
2023-04-21T20:01:11.954Z,4.78
2023-04-21T20:03:48.496Z,5.05
2023-04-21T20:06:19.326Z,5.63
2023-04-21T20:08:47.049Z,5.50
2023-04-21T20:11:26.188Z,5.20
2023-04-21T20:14:00.119Z,5.85
2023-04-21T20:19:48.332Z,6.07
2023-04-21T20:22:34.162Z,5.82
2023-04-21T20:25:07.849Z,6.22
2023-04-21T20:27:43.955Z,6.72
2023-04-21T20:30:34.848Z,7.25
2023-04-21T20:38:51.810Z,6.47
2023-04-21T20:41:27.313Z,7.05
2023-04-21T20:44:07.998Z,6.70
2023-04-21T20:49:29.971Z,7.65
2023-04-21T21:09:06.217Z,6.50
2023-04-21T21:12:32.704Z,7.00
2023-04-21T21:15:07.237Z,7.55
2023-04-21T21:17:51.008Z,6.95
2023-04-21T21:20:21.050Z,7.85
2023-04-21T21:22:59.836Z,7.80
2023-04-21T21:28:25.107Z,6.82
2023-04-21T21:30:55.005Z,6.90
2023-04-21T21:38:56.512Z,7.93
2023-04-21T21:41:40.570Z,8.20
2023-04-21T21:44:16.298Z,7.53
2023-04-21T21:46:55.109Z,8.23
2023-04-21T21:52:16.737Z,7.85
2023-04-21T21:57:48.633Z,8.32
2023-04-21T22:00:33.090Z,7.72
2023-04-21T22:05:50.237Z,8.93
2023-04-21T22:14:47.558Z,8.65
2023-04-21T22:17:48.414Z,8.52
2023-04-21T22:29:51.714Z,9.52
2023-04-21T22:35:02.413Z,9.85
2023-04-21T22:37:37.956Z,18.08
2023-04-21T22:40:21.658Z,14.02
2023-04-21T22:42:51.968Z,13.25
2023-04-21T22:45:23.484Z,10.10
2023-04-21T22:47:55.420Z,9.90
2023-04-21T22:50:23.809Z,9.27
2023-04-21T22:52:56.039Z,9.23
2023-04-21T22:55:26.971Z,9.80
2023-04-21T23:00:46.983Z,8.70
2023-04-21T23:03:14.522Z,8.93
2023-04-21T23:05:46.226Z,9.32
2023-04-21T23:08:18.834Z,8.35
2023-04-21T23:10:53.012Z,8.85
2023-04-21T23:13:24.287Z,8.25
2023-04-21T23:16:03.203Z,8.30
2023-04-21T23:21:14.144Z,8.45
2023-04-21T23:23:46.826Z,8.05
2023-04-21T23:26:17.620Z,7.80
2023-04-21T23:28:46.357Z,8.57
2023-04-21T23:31:17.602Z,8.35
2023-04-21T23:33:54.435Z,8.30
2023-04-21T23:36:37.160Z,8.07
2023-04-21T23:39:07.712Z,7.90
2023-04-21T23:41:51.546Z,8.25
2023-04-21T23:44:22.547Z,7.68
2023-04-21T23:46:53.015Z,8.25
2023-04-21T23:49:31.713Z,8.63
2023-04-21T23:54:40.553Z,8.15
2023-04-21T23:57:13.465Z,8.10
2023-04-21T23:59:45.498Z,7.93
